Spring Creek, Colorado
Current Conditions -  °F | °C
As of 6:34 PM on Friday 24 Oct 2014 (Local Time) from K7BM Reporting Station
Clear Clear  
Wind Chill: 59°   Ceiling: Unl
Heat Index: 59°   Visibility: 10mi
Dew Point: 14°   Wind: 3mph
Humidity: 17%   Direction: 290°WNW
Pressure: 30.49"   Gusts: NA
Location:  38.7752°N, 106.586°W
Report Text: K7BM 250034Z AUTO 29003KT 10SM CLR 15/M10 A3049 RMK AO2
Loading
Personal Weather Stations






























Interactive Weather Map
Tropical Storm Tracking
New forecast layout! Learn more

10-Day Weather Forecast

Advertisements
Track Severe Weather on mobile